KROX

Roseau Municipal / Rudy Billberg Field Airport

Roseau, Minnesota, USA
METAR KROX 211436Z AUTO 18003KT 10SM CLR 18/07 A3010 RMK AO2
Observed Flight Rules
May-21 @ 14:36 UTC (24 minutes ago) Visual Flight Rules
Wind Visibility Clouds
180° at 3 knots 10 miles
  • Clear skies
Temperatures Readings
Current 18°C / 64°F
Dewpoint 7°C / 45°F
Humidity 49%
Altimeter 30.1" Hg
Pressure 1019 hPa
Elevation 323
METAR KROX 211436Z AUTO 18003KT 10SM CLR 18/07 A3010 RMK AO2
Observed Flight Rules
May-21 @ 14:36 UTC
(24 minutes ago)
VFR
Wind Visibility
180° at 3 knots 10 miles
Clouds
  • Clear skies
Temperature Dewpoint
18°C / 64°F 7°C / 45°F
Humidity Altimeter Pressure
49% 30.1" Hg 1019 hPa